Time;durP1;ratioP1;P1;durP2;ratioP2;P2;SDS_P1;SDS_P2;PMS_P1;PMS_P2;Temp;Humidity;BMP_temperature;BMP_pressure;BME280_temperature;BME280_humidity;BME280_pressure;Samples;Min_cycle;Max_cycle;Signal;HPM_P1;HPM_P2
2021/03/31 00:02:15;;;;;;;;;;;;;;;5.66;100.00;100164.81;1740076;80;20229;-62
2021/03/31 00:04:46;;;;;;;;;;;;;;;5.62;100.00;100167.30;1722127;83;20250;-62
2021/03/31 00:07:17;;;;;;;;;;;;;;;5.55;100.00;100164.91;1759911;80;21200;-62
2021/03/31 00:09:51;;;;;;;;;;;;;;;5.53;100.00;100165.29;1743340;81;20229;-65
2021/03/31 00:12:25;;;;;;;;;;;;;;;5.51;100.00;100161.74;1748535;81;20227;-63
2021/03/31 00:14:55;;;;;;;;;;;;;;;5.50;100.00;100160.39;1761898;81;20228;-66
2021/03/31 00:17:40;;;;;;;;;;;;;;;5.47;100.00;100161.60;1757289;81;20153;-65
2021/03/31 00:20:14;;;;;;;;;;;;;;;5.44;100.00;100163.70;1762337;81;20582;-65
2021/03/31 00:22:48;;;;;;;;;;;;;;;5.40;100.00;100155.72;1738815;81;20228;-64
2021/03/31 00:25:19;;;;;;;;;;;;;;;5.37;100.00;100158.70;1713192;83;20314;-65
2021/03/31 00:27:50;;;;;;;;;;;;;;;5.36;100.00;100152.13;1710603;82;20132;-65
2021/03/31 00:30:22;;;;;;;;;;;;;;;5.35;100.00;100152.96;1704755;82;20304;-65
2021/03/31 00:33:00;;;;;;;;;;;;;;;5.32;100.00;100153.75;1688735;85;20301;-65
2021/03/31 00:35:45;;;;;;;;;;;;;;;5.31;100.00;100152.40;1689335;85;20225;-64
2021/03/31 00:38:16;;;;;;;;;;;;;;;5.28;100.00;100154.50;1688846;84;20237;-64
2021/03/31 00:40:52;;;;;;;;;;;;;;;5.24;100.00;100157.86;1750081;82;20598;-65
2021/03/31 00:43:23;;;;;;;;;;;;;;;5.18;100.00;100154.14;1702170;81;20229;-64
2021/03/31 00:45:59;;;;;;;;;;;;;;;5.12;100.00;100156.56;1689057;83;21390;-65
2021/03/31 00:48:33;;;;;;;;;;;;;;;5.08;100.00;100158.19;1740111;81;20326;-64
2021/03/31 00:51:04;;;;;;;;;;;;;;;5.06;100.00;100147.69;1734264;80;20238;-65
2021/03/31 00:53:39;;;;;;;;;;;;;;;5.04;100.00;100146.75;1735563;82;20245;-64
2021/03/31 00:56:13;;;;;;;;;;;;;;;5.04;100.00;100148.47;1735013;82;20540;-64
2021/03/31 00:58:43;;;;;;;;;;;;;;;5.06;100.00;100146.38;1738091;82;22127;-62
2021/03/31 01:01:13;;;;;;;;;;;;;;;5.06;100.00;100150.30;1741497;82;20254;-62
2021/03/31 01:03:43;;;;;;;;;;;;;;;5.05;100.00;100148.52;1740689;82;20312;-62
2021/03/31 01:06:13;;;;;;;;;;;;;;;5.01;100.00;100149.69;1740595;82;20221;-61
2021/03/31 01:08:44;;;;;;;;;;;;;;;4.98;100.00;100153.51;1737212;81;20216;-62
2021/03/31 01:11:20;;;;;;;;;;;;;;;4.96;100.00;100150.84;1732048;81;22350;-62
2021/03/31 01:14:23;;;;;;;;;;;;;;;4.96;100.00;100152.58;1731602;81;20616;-62
2021/03/31 01:16:56;;;;;;;;;;;;;;;4.94;100.00;100157.75;1745786;80;20231;-62
2021/03/31 01:19:29;;;;;;;;;;;;;;;4.92;100.00;100148.08;1772256;80;20774;-62
2021/03/31 01:22:33;;;;;;;;;;;;;;;4.90;100.00;100148.45;1771825;80;35642;-61
2021/03/31 01:25:10;;;;;;;;;;;;;;;4.88;100.00;100139.67;1772180;80;22123;-61
2021/03/31 01:28:17;;;;;;;;;;;;;;;4.88;100.00;100144.91;1775337;80;20230;-61
2021/03/31 01:31:12;;;;;;;;;;;;;;;4.86;100.00;100141.34;1787081;80;20269;-64
2021/03/31 01:33:48;;;;;;;;;;;;;;;4.87;100.00;100134.86;1786900;79;20127;-63
2021/03/31 01:36:19;;;;;;;;;;;;;;;4.89;100.00;100138.83;1785444;80;20219;-61
2021/03/31 01:38:55;;;;;;;;;;;;;;;4.89;100.00;100130.58;1786652;79;21198;-61
2021/03/31 01:41:24;;;;;;;;;;;;;;;4.91;100.00;100138.05;1785492;80;20552;-61
2021/03/31 01:43:56;;;;;;;;;;;;;;;4.90;100.00;100131.04;1785986;80;20115;-61
2021/03/31 01:46:26;;;;;;;;;;;;;;;4.91;100.00;100124.09;1779665;80;20733;-61
2021/03/31 01:48:56;;;;;;;;;;;;;;;4.90;100.00;100127.54;1731420;80;20280;-61
2021/03/31 01:51:26;;;;;;;;;;;;;;;4.85;100.00;100122.16;1718391;81;21369;-62
2021/03/31 01:53:56;;;;;;;;;;;;;;;4.79;100.00;100116.74;1744745;80;20225;-61
2021/03/31 01:56:27;;;;;;;;;;;;;;;4.74;100.00;100125.73;1744979;80;20607;-61
2021/03/31 01:58:57;;;;;;;;;;;;;;;4.68;100.00;100122.89;1761172;80;20225;-61
2021/03/31 02:01:27;;;;;;;;;;;;;;;4.66;100.00;100126.30;1756088;80;20275;-61
2021/03/31 02:03:57;;;;;;;;;;;;;;;4.64;100.00;100124.94;1756659;81;21351;-61
2021/03/31 02:06:29;;;;;;;;;;;;;;;4.58;100.00;100121.23;1753243;82;20189;-61
2021/03/31 02:08:59;;;;;;;;;;;;;;;4.57;100.00;100125.58;1777711;80;20227;-61
2021/03/31 02:11:29;;;;;;;;;;;;;;;4.53;100.00;100121.08;1785891;80;20159;-61
2021/03/31 02:14:01;;;;;;;;;;;;;;;4.54;100.00;100125.47;1786016;79;20154;-62
2021/03/31 02:16:34;;;;;;;;;;;;;;;4.56;100.00;100118.99;1747183;80;21191;-61
2021/03/31 02:19:04;;;;;;;;;;;;;;;4.57;100.00;100118.16;1742557;81;20138;-61
2021/03/31 02:21:36;;;;;;;;;;;;;;;4.59;100.00;100116.48;1742921;81;20142;-63
2021/03/31 02:24:07;;;;;;;;;;;;;;;4.61;100.00;100112.19;1742264;81;20266;-61
2021/03/31 02:26:36;;;;;;;;;;;;;;;4.65;100.00;100112.76;1777301;80;21174;-62
2021/03/31 02:29:07;;;;;;;;;;;;;;;4.67;100.00;100112.39;1776357;80;21366;-62
2021/03/31 02:31:37;;;;;;;;;;;;;;;4.68;100.00;100111.55;1750781;81;20278;-62
2021/03/31 02:34:06;;;;;;;;;;;;;;;4.68;100.00;100108.52;1771927;80;20247;-61
2021/03/31 02:36:42;;;;;;;;;;;;;;;4.72;100.00;100110.81;1727788;82;20495;-62
2021/03/31 02:39:14;;;;;;;;;;;;;;;4.74;100.00;100104.83;1741251;81;20233;-61
2021/03/31 02:41:47;;;;;;;;;;;;;;;4.80;100.00;100105.45;1740246;81;20528;-62
2021/03/31 02:44:18;;;;;;;;;;;;;;;4.83;100.00;100103.34;1740560;81;20488;-62
2021/03/31 02:46:48;;;;;;;;;;;;;;;4.87;100.00;100099.57;1731559;81;20209;-61
2021/03/31 02:49:19;;;;;;;;;;;;;;;4.89;100.00;100097.89;1731914;81;20130;-61
2021/03/31 02:51:49;;;;;;;;;;;;;;;4.94;100.00;100106.77;1731749;81;20229;-61
2021/03/31 02:54:19;;;;;;;;;;;;;;;4.99;100.00;100106.49;1720259;80;21215;-61
2021/03/31 02:56:50;;;;;;;;;;;;;;;5.01;100.00;100109.16;1770846;80;20294;-61
2021/03/31 02:59:20;;;;;;;;;;;;;;;5.03;100.00;100101.83;1771957;80;20207;-61
2021/03/31 03:01:52;;;;;;;;;;;;;;;5.05;100.00;100108.41;1772244;81;20326;-61
2021/03/31 03:04:21;;;;;;;;;;;;;;;5.07;100.00;100105.42;1770880;80;20285;-61
2021/03/31 03:06:52;;;;;;;;;;;;;;;5.13;100.00;100108.64;1772099;80;21205;-61
2021/03/31 03:09:24;;;;;;;;;;;;;;;5.16;100.00;100108.73;1742145;81;20635;-62
2021/03/31 03:11:55;;;;;;;;;;;;;;;5.20;100.00;100107.61;1700024;82;20218;-62
2021/03/31 03:14:25;;;;;;;;;;;;;;;5.22;100.00;100106.34;1714727;83;20223;-61
2021/03/31 03:16:54;;;;;;;;;;;;;;;5.25;100.00;100106.02;1740901;81;20574;-62
2021/03/31 03:19:25;;;;;;;;;;;;;;;5.28;100.00;100111.76;1745542;82;20484;-62
2021/03/31 03:21:55;;;;;;;;;;;;;;;5.29;100.00;100108.30;1768617;80;20210;-62
2021/03/31 03:24:25;;;;;;;;;;;;;;;5.30;100.00;100098.30;1735153;81;20565;-62
2021/03/31 03:26:54;;;;;;;;;;;;;;;5.34;100.00;100095.83;1705758;83;20120;-61
2021/03/31 03:29:25;;;;;;;;;;;;;;;5.37;100.00;100100.26;1706478;83;20164;-62
2021/03/31 03:31:54;;;;;;;;;;;;;;;5.39;100.00;100098.58;1709383;80;21145;-62
2021/03/31 03:34:24;;;;;;;;;;;;;;;5.41;100.00;100094.27;1711958;83;20120;-62
2021/03/31 03:36:53;;;;;;;;;;;;;;;5.43;100.00;100099.13;1711736;84;20157;-61
2021/03/31 03:39:23;;;;;;;;;;;;;;;5.43;100.00;100095.63;1726315;82;20297;-62
2021/03/31 03:41:52;;;;;;;;;;;;;;;5.37;100.00;100088.06;1717830;82;20523;-62
2021/03/31 03:44:22;;;;;;;;;;;;;;;5.33;100.00;100087.93;1737769;81;21387;-62
2021/03/31 03:46:56;;;;;;;;;;;;;;;5.26;100.00;100084.25;1746714;81;20269;-62
2021/03/31 03:49:26;;;;;;;;;;;;;;;5.20;100.00;100093.22;1734507;82;20230;-62
2021/03/31 03:51:56;;;;;;;;;;;;;;;5.15;100.00;100085.62;1735330;82;20556;-62
2021/03/31 03:54:26;;;;;;;;;;;;;;;5.14;100.00;100082.95;1733691;81;20579;-62
2021/03/31 03:56:55;;;;;;;;;;;;;;;5.12;100.00;100091.17;1731616;82;21198;-61
2021/03/31 03:59:27;;;;;;;;;;;;;;;5.10;100.00;100078.48;1731353;82;20139;-62
2021/03/31 04:01:58;;;;;;;;;;;;;;;5.10;100.00;100086.33;1729644;80;20252;-62
2021/03/31 04:04:27;;;;;;;;;;;;;;;5.10;100.00;100091.13;1695138;82;20220;-62
2021/03/31 04:07:01;;;;;;;;;;;;;;;5.15;100.00;100092.58;1710980;82;20273;-61
2021/03/31 04:09:32;;;;;;;;;;;;;;;5.17;100.00;100090.48;1707656;82;21223;-62
2021/03/31 04:12:02;;;;;;;;;;;;;;;5.22;100.00;100081.49;1715450;83;20490;-61
2021/03/31 04:14:32;;;;;;;;;;;;;;;5.24;100.00;100080.70;1741680;82;20507;-62
2021/03/31 04:17:03;;;;;;;;;;;;;;;5.28;100.00;100075.14;1712165;83;20238;-61
2021/03/31 04:19:37;;;;;;;;;;;;;;;5.31;100.00;100073.50;1757326;81;20244;-61
2021/03/31 04:22:05;;;;;;;;;;;;;;;5.35;100.00;100074.05;1772730;81;22181;-62
2021/03/31 04:24:34;;;;;;;;;;;;;;;5.40;100.00;100068.06;1771119;80;20227;-62
2021/03/31 04:27:05;;;;;;;;;;;;;;;5.37;100.00;100069.75;1772764;80;20116;-62
2021/03/31 04:29:35;;;;;;;;;;;;;;;5.36;100.00;100077.13;1755911;80;20230;-61
2021/03/31 04:32:06;;;;;;;;;;;;;;;5.37;100.00;100072.79;1726681;81;20289;-62
2021/03/31 04:34:36;;;;;;;;;;;;;;;5.36;100.00;100074.52;1726316;81;21135;-62
2021/03/31 04:37:07;;;;;;;;;;;;;;;5.35;100.00;100080.59;1706473;81;20218;-61
2021/03/31 04:39:37;;;;;;;;;;;;;;;5.35;100.00;100082.32;1729827;81;20535;-62
2021/03/31 04:42:08;;;;;;;;;;;;;;;5.34;100.00;100085.36;1730328;81;20241;-62
2021/03/31 04:44:37;;;;;;;;;;;;;;;5.34;100.00;100087.09;1729009;81;20289;-61
2021/03/31 04:47:08;;;;;;;;;;;;;;;5.35;100.00;100089.75;1726762;81;21359;-62
2021/03/31 04:49:37;;;;;;;;;;;;;;;5.39;100.00;100086.80;1726178;81;20174;-62
2021/03/31 04:52:09;;;;;;;;;;;;;;;5.45;100.00;100083.05;1739658;81;20226;-62
2021/03/31 04:54:39;;;;;;;;;;;;;;;5.51;100.00;100081.03;1740921;81;20233;-62
2021/03/31 04:57:09;;;;;;;;;;;;;;;5.54;100.00;100079.39;1741251;81;20558;-62
2021/03/31 04:59:39;;;;;;;;;;;;;;;5.57;100.00;100079.91;1761010;81;22301;-62
2021/03/31 05:02:08;;;;;;;;;;;;;;;5.58;100.00;100076.44;1771988;81;20497;-62
2021/03/31 05:04:37;;;;;;;;;;;;;;;5.59;100.00;100080.41;1772730;80;20274;-62
2021/03/31 05:07:07;;;;;;;;;;;;;;;5.57;100.00;100079.48;1772705;80;20135;-62
2021/03/31 05:09:36;;;;;;;;;;;;;;;5.58;100.00;100076.02;1771188;80;20147;-62
2021/03/31 05:12:08;;;;;;;;;;;;;;;5.62;100.00;100077.87;1771761;80;22114;-61
2021/03/31 05:14:37;;;;;;;;;;;;;;;5.63;100.00;100081.38;1770894;81;20568;-62
2021/03/31 05:17:08;;;;;;;;;;;;;;;5.68;100.00;100075.89;1772648;80;20163;-62
2021/03/31 05:19:38;;;;;;;;;;;;;;;5.74;100.00;100079.98;1758528;81;20320;-62
2021/03/31 05:22:09;;;;;;;;;;;;;;;5.79;100.00;100077.50;1705896;83;20233;-62
2021/03/31 05:24:38;;;;;;;;;;;;;;;5.85;100.00;100075.05;1726493;81;21139;-62
2021/03/31 05:27:08;;;;;;;;;;;;;;;5.93;100.00;100078.37;1726396;81;20186;-61
2021/03/31 05:29:38;;;;;;;;;;;;;;;6.02;100.00;100076.42;1732509;81;20163;-62
2021/03/31 05:32:08;;;;;;;;;;;;;;;6.11;100.00;100069.23;1731906;82;20214;-62
2021/03/31 05:34:58;;;;;;;;;;;;;;;6.23;100.00;100076.12;1668160;83;20281;-62
2021/03/31 05:37:29;;;;;;;;;;;;;;;6.33;100.00;100079.45;1674500;84;20564;-62
2021/03/31 05:39:59;;;;;;;;;;;;;;;6.41;100.00;100072.66;1705927;84;20802;-62
2021/03/31 05:42:28;;;;;;;;;;;;;;;6.49;100.00;100066.30;1706244;84;20180;-62
2021/03/31 05:44:58;;;;;;;;;;;;;;;6.55;100.00;100074.31;1718374;82;20298;-62
2021/03/31 05:47:34;;;;;;;;;;;;;;;6.62;100.00;100067.98;1736433;82;20162;-62
2021/03/31 05:50:01;;;;;;;;;;;;;;;6.67;100.00;100068.52;1735673;82;21214;-63
2021/03/31 05:52:30;;;;;;;;;;;;;;;6.70;100.00;100068.59;1736159;82;20249;-63
2021/03/31 05:55:02;;;;;;;;;;;;;;;6.72;100.00;100065.16;1678273;85;20247;-64
2021/03/31 05:57:32;;;;;;;;;;;;;;;6.76;100.00;100067.00;1677739;85;20302;-62
2021/03/31 06:00:03;;;;;;;;;;;;;;;6.87;100.00;100058.06;1689409;82;20152;-61
2021/03/31 06:02:34;;;;;;;;;;;;;;;6.94;100.00;100056.93;1699134;84;22265;-63
2021/03/31 06:05:05;;;;;;;;;;;;;;;7.07;100.00;100057.20;1683281;84;20283;-62
2021/03/31 06:07:35;;;;;;;;;;;;;;;7.15;100.00;100055.23;1676330;85;20259;-62
2021/03/31 06:10:18;;;;;;;;;;;;;;;7.24;100.00;100049.30;1715068;82;20540;-62
2021/03/31 06:12:55;;;;;;;;;;;;;;;7.31;100.00;100055.14;1723213;83;20470;-61
2021/03/31 06:15:39;;;;;;;;;;;;;;;7.38;100.00;100049.17;1724930;82;21220;-63
2021/03/31 06:18:15;;;;;;;;;;;;;;;7.43;100.00;100053.20;1784551;80;20580;-63
2021/03/31 06:20:48;;;;;;;;;;;;;;;7.52;100.00;100056.02;1769975;80;20226;-63
2021/03/31 06:23:33;;;;;;;;;;;;;;;7.60;100.00;100050.95;1716399;82;20217;-63
2021/03/31 06:25:58;;;;;;;;;;;;;;;7.67;100.00;100050.22;1716524;83;20258;-63
2021/03/31 06:28:33;;;;;;;;;;;;;;;7.75;100.00;100052.56;1745068;82;21371;-63
2021/03/31 06:31:10;;;;;;;;;;;;;;;7.82;100.00;100050.52;1744475;80;20148;-63
2021/03/31 06:33:41;;;;;;;;;;;;;;;7.92;100.00;100053.77;1708234;83;20269;-63
2021/03/31 06:36:13;;;;;;;;;;;;;;;7.97;100.00;100057.36;1748593;80;20702;-63
2021/03/31 06:38:48;;;;;;;;;;;;;;;8.02;100.00;100049.14;1742683;82;20142;-63
2021/03/31 06:41:32;;;;;;;;;;;;;;;8.09;100.00;100056.31;1752993;82;20121;-63
2021/03/31 06:44:20;;;;;;;;;;;;;;;8.16;100.00;100050.73;1779212;80;20345;-62
2021/03/31 06:49:30;;;;;;;;;;;;;;;8.25;100.00;100057.47;1710473;81;20136;-64
2021/03/31 06:52:07;;;;;;;;;;;;;;;8.33;100.00;100058.91;1723300;82;20140;-65
2021/03/31 06:54:46;;;;;;;;;;;;;;;8.40;100.00;100056.45;1759840;81;21146;-64
2021/03/31 06:57:23;;;;;;;;;;;;;;;8.48;100.00;100062.72;1757668;80;20158;-64
2021/03/31 07:00:09;;;;;;;;;;;;;;;8.55;100.00;100060.22;1757108;81;20109;-64
2021/03/31 07:02:45;;;;;;;;;;;;;;;8.66;100.00;100056.91;1756763;81;20691;-63
2021/03/31 07:05:15;;;;;;;;;;;;;;;8.76;100.00;100057.94;1760202;81;20487;-62
2021/03/31 07:07:44;;;;;;;;;;;;;;;8.79;100.00;100061.92;1732421;81;21196;-62
2021/03/31 07:10:16;;;;;;;;;;;;;;;8.82;100.00;100060.23;1739639;82;20474;-62
2021/03/31 07:12:46;;;;;;;;;;;;;;;8.87;100.00;100062.92;1709491;83;20240;-63
2021/03/31 07:15:17;;;;;;;;;;;;;;;8.91;100.00;100055.97;1718328;83;20219;-63
2021/03/31 07:17:50;;;;;;;;;;;;;;;8.99;100.00;100057.87;1753368;80;20214;-62
2021/03/31 07:20:18;;;;;;;;;;;;;;;9.07;100.00;100062.82;1755346;80;21216;-62
2021/03/31 07:22:47;;;;;;;;;;;;;;;9.14;100.00;100058.09;1742471;82;20218;-62
2021/03/31 07:25:17;;;;;;;;;;;;;;;9.23;100.00;100054.70;1751310;82;20281;-62
2021/03/31 07:27:46;;;;;;;;;;;;;;;9.31;100.00;100046.91;1743776;81;20563;-62
2021/03/31 07:30:18;;;;;;;;;;;;;;;9.37;100.00;100056.20;1752933;82;20145;-63
2021/03/31 07:33:00;;;;;;;;;;;;;;;9.42;100.00;100049.25;1741861;81;22287;-63
2021/03/31 07:35:33;;;;;;;;;;;;;;;9.49;100.00;100048.92;1752649;80;20510;-62
2021/03/31 07:38:04;;;;;;;;;;;;;;;9.54;100.00;100048.55;1733784;82;20241;-63
2021/03/31 07:40:35;;;;;;;;;;;;;;;9.59;100.00;100056.07;1725004;82;20571;-61
2021/03/31 07:43:10;;;;;;;;;;;;;;;9.63;100.00;100048.66;1754187;80;20147;-61
2021/03/31 07:45:43;;;;;;;;;;;;;;;9.69;100.00;100047.41;1753383;80;20754;-63
2021/03/31 07:48:12;;;;;;;;;;;;;;;9.76;100.00;100049.25;1738989;81;20237;-62
2021/03/31 07:50:42;;;;;;;;;;;;;;;9.86;100.00;100044.53;1751715;82;20216;-64
2021/03/31 07:53:13;;;;;;;;;;;;;;;9.96;100.00;100033.25;1741363;82;20283;-69
2021/03/31 07:55:48;;;;;;;;;;;;;;;10.07;100.00;100038.62;1691168;83;20313;-64
2021/03/31 07:58:24;;;;;;;;;;;;;;;10.09;100.00;100035.14;1728173;83;21217;-62
2021/03/31 08:01:02;;;;;;;;;;;;;;;10.16;100.00;100037.84;1775986;80;20148;-63
2021/03/31 08:03:33;;;;;;;;;;;;;;;10.20;100.00;100030.00;1775524;80;20526;-63
2021/03/31 08:06:12;;;;;;;;;;;;;;;10.27;100.00;100031.83;1767002;80;20138;-61
2021/03/31 08:08:49;;;;;;;;;;;;;;;10.35;100.00;100029.25;1767909;80;20271;-64
2021/03/31 08:11:40;;;;;;;;;;;;;;;10.42;100.00;100021.88;1742322;81;21385;-66
2021/03/31 08:14:14;;;;;;;;;;;;;;;10.51;100.00;100023.27;1755376;80;20309;-65
2021/03/31 08:16:45;;;;;;;;;;;;;;;10.62;100.00;100017.64;1757887;80;20208;-66
2021/03/31 08:19:17;;;;;;;;;;;;;;;10.77;100.00;100025.21;1723339;82;20234;-63
2021/03/31 08:21:49;;;;;;;;;;;;;;;10.90;100.00;100017.86;1742602;82;20223;-64
2021/03/31 08:24:18;;;;;;;;;;;;;;;11.05;100.00;100020.59;1712762;84;21157;-64
2021/03/31 08:26:48;;;;;;;;;;;;;;;11.21;100.00;100011.87;1708047;83;20242;-65
2021/03/31 08:29:24;;;;;;;;;;;;;;;11.38;100.00;100013.73;1694321;84;20486;-64
2021/03/31 08:31:57;;;;;;;;;;;;;;;11.47;100.00;100012.02;1711910;84;20517;-65
2021/03/31 08:34:30;;;;;;;;;;;;;;;11.58;100.00;100012.05;1712489;84;20231;-63
2021/03/31 08:37:01;;;;;;;;;;;;;;;11.70;100.00;100007.24;1712005;84;21157;-61
2021/03/31 08:39:30;;;;;;;;;;;;;;;11.85;100.00;100001.62;1712622;84;20271;-60
2021/03/31 08:41:59;;;;;;;;;;;;;;;12.01;100.00;99999.89;1711609;83;20262;-61
2021/03/31 08:44:36;;;;;;;;;;;;;;;12.16;100.00;99995.94;1696163;83;20729;-62
2021/03/31 08:47:17;;;;;;;;;;;;;;;12.33;100.00;99993.33;1775904;80;20215;-61
2021/03/31 08:49:49;;;;;;;;;;;;;;;12.52;100.00;99986.27;1762335;80;20196;-62
2021/03/31 08:52:20;;;;;;;;;;;;;;;12.71;100.00;99984.04;1741355;82;20276;-62
2021/03/31 08:54:52;;;;;;;;;;;;;;;12.84;100.00;99985.81;1772414;80;20321;-64
2021/03/31 08:57:28;;;;;;;;;;;;;;;12.96;100.00;99985.34;1787209;80;20210;-64
2021/03/31 09:00:01;;;;;;;;;;;;;;;13.05;99.31;99982.23;1761060;80;20223;-63
2021/03/31 09:02:34;;;;;;;;;;;;;;;13.17;97.84;99977.37;1786759;79;21198;-63
2021/03/31 09:05:04;;;;;;;;;;;;;;;13.34;97.20;99974.68;1787318;80;20608;-71
2021/03/31 09:07:34;;;;;;;;;;;;;;;13.52;96.75;99974.59;1787316;80;20179;-63
2021/03/31 09:10:04;;;;;;;;;;;;;;;13.68;95.50;99974.95;1787557;80;21037;-66
2021/03/31 09:12:35;;;;;;;;;;;;;;;13.79;93.33;99972.27;1787658;79;20136;-63
2021/03/31 09:15:05;;;;;;;;;;;;;;;13.86;89.46;99965.59;1787174;80;21197;-62
2021/03/31 09:17:35;;;;;;;;;;;;;;;13.98;87.99;99969.05;1786896;79;20659;-64
2021/03/31 09:20:06;;;;;;;;;;;;;;;14.08;86.88;99967.64;1765039;80;20168;-66
2021/03/31 09:22:36;;;;;;;;;;;;;;;14.22;86.89;99962.71;1743478;80;20226;-63
2021/03/31 09:25:13;;;;;;;;;;;;;;;14.33;85.11;99956.87;1751938;82;20236;-64
2021/03/31 09:27:44;;;;;;;;;;;;;;;14.43;83.18;99960.78;1738342;82;22384;-63
2021/03/31 09:30:16;;;;;;;;;;;;;;;14.56;82.65;99954.03;1757826;80;20129;-67
2021/03/31 09:32:54;;;;;;;;;;;;;;;14.62;81.29;99953.53;1770217;80;20159;-65
2021/03/31 09:35:25;;;;;;;;;;;;;;;14.72;81.39;99947.71;1773472;80;20135;-65
2021/03/31 09:37:57;;;;;;;;;;;;;;;14.87;79.96;99946.66;1741376;82;20221;-65
2021/03/31 09:40:30;;;;;;;;;;;;;;;15.02;79.19;99947.37;1741022;82;21455;-63
2021/03/31 09:43:10;;;;;;;;;;;;;;;15.18;79.06;99943.23;1742143;82;20315;-64
2021/03/31 09:45:48;;;;;;;;;;;;;;;15.36;76.65;99937.69;1745944;81;20578;-64
2021/03/31 09:48:17;;;;;;;;;;;;;;;15.49;75.80;99937.95;1691422;83;20227;-64
2021/03/31 09:50:47;;;;;;;;;;;;;;;15.61;73.54;99931.66;1712853;84;20223;-64
2021/03/31 09:53:17;;;;;;;;;;;;;;;15.69;71.80;99924.44;1722569;83;21301;-64
2021/03/31 09:55:46;;;;;;;;;;;;;;;15.74;68.71;99927.47;1712867;83;20501;-63
2021/03/31 09:58:22;;;;;;;;;;;;;;;15.71;67.09;99923.97;1722605;83;20247;-63
2021/03/31 10:00:51;;;;;;;;;;;;;;;15.74;66.13;99926.13;1712357;83;20326;-63
2021/03/31 10:03:22;;;;;;;;;;;;;;;15.78;64.60;99917.66;1722775;83;20493;-63
2021/03/31 10:05:52;;;;;;;;;;;;;;;15.85;66.61;99914.00;1712405;84;22285;-65
2021/03/31 10:08:22;;;;;;;;;;;;;;;16.00;66.96;99907.55;1725148;81;20223;-65
2021/03/31 10:10:59;;;;;;;;;;;;;;;16.14;67.11;99906.91;1737104;81;20496;-62
2021/03/31 10:13:27;;;;;;;;;;;;;;;16.27;64.77;99904.91;1748495;82;20161;-63
2021/03/31 10:16:00;;;;;;;;;;;;;;;16.40;65.66;99906.91;1685228;84;20498;-63
2021/03/31 10:18:32;;;;;;;;;;;;;;;16.53;62.30;99903.12;1723061;83;20713;-63
2021/03/31 10:21:04;;;;;;;;;;;;;;;16.73;60.98;99896.15;1712810;84;20181;-63
2021/03/31 10:23:34;;;;;;;;;;;;;;;16.94;61.65;99898.39;1722452;83;20505;-63
2021/03/31 10:26:25;;;;;;;;;;;;;;;17.12;60.69;99897.17;1708925;84;20302;-63
2021/03/31 10:29:03;;;;;;;;;;;;;;;17.23;57.17;99891.16;1722858;83;20223;-64
2021/03/31 10:31:44;;;;;;;;;;;;;;;17.35;55.87;99886.01;1708776;84;21409;-63
2021/03/31 10:34:13;;;;;;;;;;;;;;;17.53;55.27;99882.96;1722446;83;20482;-63
2021/03/31 10:48:22;;;;;;;;;;;;;;;17.88;49.96;99868.36;1692594;83;20595;-62
2021/03/31 10:50:57;;;;;;;;;;;;;;;18.00;49.97;99867.22;1722249;83;20159;-62
2021/03/31 10:53:32;;;;;;;;;;;;;;;18.10;49.20;99865.19;1722729;83;20227;-62
2021/03/31 10:56:08;;;;;;;;;;;;;;;18.15;48.05;99857.48;1807102;78;20245;-63
2021/03/31 10:58:41;;;;;;;;;;;;;;;18.05;47.29;99861.76;1781554;79;20146;-63
2021/03/31 11:01:11;;;;;;;;;;;;;;;18.04;47.19;99858.22;1781546;80;21185;-63
2021/03/31 11:03:41;;;;;;;;;;;;;;;17.99;47.15;99857.45;1781525;79;20221;-64
2021/03/31 11:06:11;;;;;;;;;;;;;;;17.99;47.85;99856.58;1781519;79;20134;-64
2021/03/31 11:08:40;;;;;;;;;;;;;;;18.07;47.35;99859.47;1781524;79;20590;-64
2021/03/31 11:11:10;;;;;;;;;;;;;;;18.09;47.05;99848.75;1781579;79;20166;-64
2021/03/31 11:13:40;;;;;;;;;;;;;;;18.06;46.79;99853.71;1781513;79;21262;-64
2021/03/31 11:16:11;;;;;;;;;;;;;;;18.10;47.28;99847.38;1779106;79;20648;-64
2021/03/31 11:26:50;;;;;;;;;;;;;;;17.85;47.05;99832.86;1781556;79;20662;-63
2021/03/31 11:29:19;;;;;;;;;;;;;;;17.75;47.78;99836.22;1774655;80;20123;-63
2021/03/31 11:44:27;;;;;;;17.00;8.93;;;;;;;17.88;47.31;99816.31;1786131;80;22802;-64
2021/03/31 11:46:57;;;;;;;11.55;8.48;;;;;;;17.88;47.31;99816.31;1759936;81;21021;-64
2021/03/31 11:49:29;;;;;;;10.35;8.78;;;;;;;17.90;47.04;99809.61;1791020;79;21133;-63
2021/03/31 11:51:59;;;;;;;12.35;8.63;;;;;;;17.83;47.11;99822.69;1777763;80;20982;-64
2021/03/31 11:54:31;;;;;;;12.50;8.80;;;;;;;17.77;47.07;99818.83;1758150;80;21017;-64
2021/03/31 11:57:02;;;;;;;15.00;8.85;;;;;;;17.71;47.01;99814.53;1790869;79;21466;-64
2021/03/31 11:59:34;;;;;;;11.30;8.03;;;;;;;17.66;46.55;99816.86;1777980;80;21471;-64
2021/03/31 12:02:04;;;;;;;11.33;7.78;;;;;;;17.55;46.27;99809.11;1758058;80;21491;-64
2021/03/31 12:04:35;;;;;;;12.00;8.83;;;;;;;17.48;45.85;99806.14;1787812;79;21069;-64
2021/03/31 12:07:07;;;;;;;11.12;8.75;;;;;;;17.43;46.19;99808.91;1782363;79;20930;-64
2021/03/31 12:09:40;;;;;;;11.25;7.92;;;;;;;17.42;46.62;99805.83;1780732;79;21410;-64
2021/03/31 12:12:13;;;;;;;11.93;8.20;;;;;;;17.41;47.11;99806.73;1780728;80;21516;-64
2021/03/31 12:14:45;;;;;;;11.65;8.20;;;;;;;17.41;47.13;99800.07;1785730;79;21451;-64
2021/03/31 12:17:17;;;;;;;11.60;7.37;;;;;;;17.38;46.93;99800.60;1779242;80;20968;-63
2021/03/31 12:19:47;;;;;;;12.75;8.13;;;;;;;17.20;46.39;99791.23;1763497;80;20949;-63
2021/03/31 12:22:17;;;;;;;10.58;7.55;;;;;;;17.20;46.39;99791.23;1757119;81;20907;-63
2021/03/31 12:24:48;;;;;;;12.25;8.53;;;;;;;17.05;46.87;99787.13;1760459;81;20955;-64
2021/03/31 12:27:21;;;;;;;12.82;8.03;;;;;;;16.95;47.34;99794.42;1760369;81;21385;-64
2021/03/31 12:29:51;;;;;;;21.50;7.60;;;;;;;16.95;47.34;99794.42;1760559;81;21500;-64
2021/03/31 12:32:21;;;;;;;13.38;8.93;;;;;;;16.90;48.20;99789.65;1760304;81;21025;-65
2021/03/31 12:34:52;;;;;;;13.25;8.00;;;;;;;17.12;50.47;99770.55;1758312;81;21446;-64
2021/03/31 12:37:24;;;;;;;12.00;8.33;;;;;;;17.12;50.47;99770.55;1759241;81;21124;-63
2021/03/31 12:39:54;;;;;;;12.33;7.30;;;;;;;17.33;51.45;99775.83;1759511;81;21372;-64
2021/03/31 12:42:25;;;;;;;9.20;7.62;;;;;;;17.54;51.46;99776.22;1760207;81;20910;-64
2021/03/31 12:44:56;;;;;;;14.00;7.33;;;;;;;17.67;50.67;99763.95;1759862;81;21097;-64
2021/03/31 12:47:25;;;;;;;12.63;7.97;;;;;;;17.81;49.68;99767.14;1759867;81;21491;-64
2021/03/31 12:49:56;;;;;;;16.27;8.65;;;;;;;17.90;48.41;99762.89;1759755;81;21500;-64
2021/03/31 12:52:30;;;;;;;14.73;7.97;;;;;;;17.87;46.24;99758.97;1759748;81;21202;-64
2021/03/31 13:06:37;;;;;;;9.80;7.67;;;;;;;18.47;45.93;99742.25;1781054;80;22829;-62
2021/03/31 13:09:10;;;;;;;19.42;7.87;;;;;;;18.47;44.74;99735.11;1782226;79;21120;-63
2021/03/31 13:11:41;;;;;;;;;;;;;;;18.41;44.95;99734.37;1780747;79;21195;-64
2021/03/31 13:17:07;;;;;;;13.28;8.30;;;;;;;18.33;44.74;99729.72;1785627;79;21021;-64
2021/03/31 13:25:10;;;;;;;16.50;8.95;;;;;;;17.74;45.52;99725.06;1764762;80;21428;-63
2021/03/31 13:28:16;;;;;;;12.03;8.68;;;;;;;17.70;45.86;99722.05;1789537;79;20901;-63
2021/03/31 13:30:36;;;;;;;14.25;9.45;;;;;;;17.68;45.92;99719.01;1764630;80;20954;-62
2021/03/31 13:33:08;;;;;;;14.55;8.65;;;;;;;17.67;48.08;99718.13;1760251;81;21140;-60
2021/03/31 13:40:41;;;;;;;14.28;8.55;;;;;;;17.56;46.23;99706.38;1790938;80;21547;-65
2021/03/31 13:43:12;;;;;;;12.18;7.92;;;;;;;17.51;46.22;99708.73;1779712;79;21036;-65
2021/03/31 13:45:42;;;;;;;18.32;8.38;;;;;;;17.44;46.58;99713.77;1777222;79;20993;-64
2021/03/31 13:48:17;;;;;;;11.75;8.85;;;;;;;17.45;47.95;99714.20;1789735;79;21156;-65
2021/03/31 13:50:46;;;;;;;12.30;7.90;;;;;;;17.54;47.83;99704.66;1737658;81;21377;-66
2021/03/31 13:53:21;;;;;;;29.32;15.83;;;;;;;17.65;47.54;99699.92;1791025;79;21543;-64
2021/03/31 13:55:52;;;;;;;13.38;9.73;;;;;;;17.71;47.06;99697.58;1757459;81;20907;-64